Wisetown, Illinois
Current Conditions -  °F | °C
As of 11:15 AM on Friday 28 Nov 2014 (Local Time) from K3LF Reporting Station
Clear Clear  
Wind Chill: 22°   Ceiling: Unl
Heat Index: 33°   Visibility: 7mi
Dew Point: 27°   Wind: 18mph
Humidity: 79%   Direction: 150°SSE
Pressure: 30.13"   Gusts: 26mph
Location:  38.895°N, 89.397°W
Report Text: K3LF 281715Z AUTO 15016G23KT 7SM CLR 01/M03 A3013 RMK AO2 T00061027
Loading
Personal Weather Stations






























Interactive Weather Map New forecast layout! Learn more

10-Day Weather Forecast

Advertisements
Track Severe Weather on mobile